Salamis Filoxenia — 5BUY2 — position and weather

sailwx.info

Track history (hours):
 
Tides and Currents Weather Stations Pressure Air Temp Water Temp Dewpoint Dewpoint Depression Visibility Wind Speed Wind Dir Waves Ship Positions

Salamis Filoxenia

Last reported at 2014-Aug-01 13:30 UTC. Time now 2014-Aug-01 14:00 UTC.
Position N 34°39' E 033°01'.

Length 157 m; draft 6.2 m.

Type: Passenger vessel. MMSI: 209167000.

Date/timePositionNaut miles runAvg speedWind from/ knotsBaromVisibWave heightAir tempDewpointWater temp
2014-Aug-01 13:30N 34°39' E 033°01'0 0.0
2014-Aug-01 12:33N 34°39' E 033°01'0 0.0
2014-Aug-01 11:33N 34°39' E 033°01'0 0.0
2014-Aug-01 10:33N 34°39' E 033°01'0 0.0
2014-Aug-01 09:33N 34°39' E 033°01'1 0.5
2014-Aug-01 08:33N 34°39' E 033°02'8 8.5
2014-Aug-01 07:33N 34°32' E 032°56'1616.0
2014-Aug-01 06:33N 34°35' E 032°36'25315.5
2014-Jul-31 14:15N 35°12' E 027°31'6215.3
2014-Jul-31 10:10N 35°21' E 026°16'29 3.8
2014-Jul-31 02:29N 35°45' E 025°54'1516.0
2014-Jul-31 01:33N 35°58' E 025°48'1615.7
2014-Jul-31 00:33N 36°13' E 025°41'1515.4
2014-Jul-30 23:33N 36°26' E 025°31'1615.6
2014-Jul-30 22:33N 36°38' E 025°18'1615.6
2014-Jul-30 21:33N 36°49' E 025°04'1313.3
2014-Jul-30 20:34N 36°60' E 024°55'1212.2
2014-Jul-30 19:33N 37°05' E 025°08'0 0.0
2014-Jul-30 18:32N 37°05' E 025°08'0 0.0
2014-Jul-30 17:33N 37°05' E 025°08'0 0.0
2014-Jul-30 16:31N 37°05' E 025°08'0 0.0
2014-Jul-30 15:33N 37°05' E 025°08'0 0.0
2014-Jul-30 14:33N 37°05' E 025°08'0 0.0
2014-Jul-30 13:33N 37°05' E 025°08'0 0.0
2014-Jul-30 12:33N 37°05' E 025°08'1110.9
2014-Jul-30 11:33N 37°16' E 025°07'1212.5
2014-Jul-30 10:33N 37°26' E 024°57'0 0.3
2014-Jul-30 09:32N 37°26' E 024°57'0 0.0
2014-Jul-30 08:33N 37°26' E 024°57'0 0.0
2014-Jul-30 07:33N 37°26' E 024°57'0 0.0
2014-Jul-30 06:32N 37°26' E 024°57'0 0.0
2014-Jul-30 05:32N 37°26' E 024°57'0 0.0
2014-Jul-30 04:33N 37°26' E 024°57'0 0.2
2014-Jul-30 03:32N 37°26' E 024°57'7 7.6
2014-Jul-30 02:33N 37°27' E 025°06'8 8.3
2014-Jul-30 01:33N 37°28' E 025°16'2 2.3
2014-Jul-30 00:33N 37°28' E 025°19'0 0.0
2014-Jul-29 23:33N 37°28' E 025°19'0 0.0
2014-Jul-29 22:33N 37°28' E 025°19'0 0.0
2014-Jul-29 21:32N 37°28' E 025°19'0 0.0
2014-Jul-29 20:33N 37°28' E 025°19'0 0.0
2014-Jul-29 19:33N 37°28' E 025°19'0 0.0
2014-Jul-29 18:32N 37°28' E 025°19'0 0.0
2014-Jul-29 17:33N 37°28' E 025°19'0 0.0
2014-Jul-29 16:33N 37°28' E 025°19'1 1.0
2014-Jul-29 15:33N 37°27' E 025°18'10 9.8
2014-Jul-29 14:33N 37°19' E 025°25'1514.6
2014-Jul-29 13:33N 37°13' E 025°42'1414.6
2014-Jul-29 12:33N 37°06' E 025°58'1514.8
2014-Jul-29 11:34N 36°58' E 026°13'1914.8
2014-Jul-29 10:17N 36°48' E 026°33'1114.8
2014-Jul-29 09:32N 36°42' E 026°45'1615.1
2014-Jul-29 08:27N 36°33' E 027°02'1415.8
2014-Jul-29 07:32N 36°32' E 027°20'1715.6
2014-Jul-29 06:27N 36°30' E 027°41'25115.7
2014-Jul-28 14:27N 34°43' E 032°19'1415.7
2014-Jul-28 13:34N 34°38' E 032°35'1515.2
2014-Jul-28 12:34N 34°33' E 032°53'10 9.8
2014-Jul-28 11:34N 34°38' E 033°03'2 2.0
2014-Jul-28 10:34N 34°39' E 033°01'0 0.0
2014-Jul-28 09:33N 34°39' E 033°01'0 0.0
2014-Jul-28 08:34N 34°39' E 033°01'0 0.0
2014-Jul-28 07:34N 34°39' E 033°01'0 0.0
2014-Jul-28 06:34N 34°39' E 033°01'1 1.4
2014-Jul-28 05:33N 34°39' E 033°03'9 9.3
2014-Jul-28 04:34N 34°32' E 032°55'1515.2
2014-Jul-28 03:34N 34°37' E 032°37'32211.1
2014-Jul-26 22:30N 36°47' E 026°34'2915.0
2014-Jul-26 20:33N 37°03' E 026°03'1515.3
2014-Jul-26 19:34N 37°10' E 025°47'1514.7
2014-Jul-26 18:33N 37°13' E 025°29'1414.0
2014-Jul-26 17:33N 37°10' E 025°12'5 4.5
2014-Jul-26 16:22N 37°05' E 025°08'0 0.0
2014-Jul-26 15:22N 37°05' E 025°08'0 0.0
2014-Jul-26 14:31N 37°05' E 025°08'0 0.0
2014-Jul-26 13:10N 37°05' E 025°08'0 0.0
2014-Jul-26 12:31N 37°05' E 025°09'0 0.0
2014-Jul-26 11:22N 37°05' E 025°09'0 0.0
2014-Jul-26 10:31N 37°05' E 025°08'0 0.0
2014-Jul-26 08:32N 37°06' E 025°08'1010.4
2014-Jul-26 07:33N 37°08' E 024°56'1414.0
2014-Jul-26 06:33N 37°12' E 024°39'1513.2
2014-Jul-26 05:26N 37°16' E 024°21'1213.6
2014-Jul-26 04:33N 37°23' E 024°09'2713.6
2014-Jul-26 02:33N 37°40' E 023°42'1413.8
2014-Jul-26 01:33N 37°53' E 023°37'4 3.5
2014-Jul-26 00:34N 37°56' E 023°38'0 0.0
2014-Jul-25 23:32N 37°56' E 023°38'0 0.0
2014-Jul-25 22:32N 37°56' E 023°38'0 0.0
2014-Jul-25 21:32N 37°56' E 023°38'0 0.0
2014-Jul-25 20:32N 37°56' E 023°38'0 0.0
2014-Jul-25 19:32N 37°56' E 023°38'0 0.0
2014-Jul-25 18:32N 37°56' E 023°38'0 0.0
2014-Jul-25 17:32N 37°56' E 023°38'0 0.0
2014-Jul-25 16:32N 37°56' E 023°38'0 0.0
2014-Jul-25 15:32N 37°56' E 023°38'0 0.0
2014-Jul-25 14:32N 37°56' E 023°38'0 0.0
2014-Jul-25 13:32N 37°56' E 023°38'0 0.0
2014-Jul-25 12:29N 37°56' E 023°38'0 0.0
2014-Jul-25 11:32N 37°56' E 023°38'0 0.0
2014-Jul-25 10:32N 37°56' E 023°38'0 0.0
2014-Jul-25 09:32N 37°56' E 023°38'0 0.0
2014-Jul-25 08:32N 37°56' E 023°38'0 0.0
2014-Jul-25 07:32N 37°56' E 023°38'1 1.3
2014-Jul-25 06:33N 37°56' E 023°37'1312.6
2014-Jul-25 05:33N 37°44' E 023°43'5713.9
2014-Jul-25 01:25N 37°21' E 024°50'1314.3
2014-Jul-25 00:33N 37°19' E 025°05'1414.2
2014-Jul-24 23:34N 37°15' E 025°22'1615.6
2014-Jul-24 22:33N 37°12' E 025°42'1514.8
2014-Jul-24 21:34N 37°06' E 025°58'1514.6
2014-Jul-24 20:33N 36°57' E 026°14'1514.6
2014-Jul-24 19:32N 36°50' E 026°29'1414.3
2014-Jul-24 18:33N 36°42' E 026°44'30211.4
2014-Jul-23 16:09N 34°41' E 032°25'915.3
2014-Jul-23 15:33N 34°38' E 032°35'1414.5
2014-Jul-23 14:34N 34°33' E 032°52'1110.5
2014-Jul-23 13:33N 34°38' E 033°03'2 2.3
2014-Jul-23 12:34N 34°39' E 033°01'0 0.0
2014-Jul-23 11:30N 34°39' E 033°01'0 0.0
2014-Jul-23 10:27N 34°39' E 033°01'0 0.0
2014-Jul-23 09:18N 34°39' E 033°01'0 0.0
2014-Jul-23 08:30N 34°39' E 033°01'0 0.0
2014-Jul-23 07:33N 34°39' E 033°01'0 0.0
2014-Jul-23 05:33N 34°39' E 033°01'0 0.0
2014-Jul-23 04:24N 34°39' E 033°01'1 1.2
2014-Jul-23 03:33N 34°39' E 033°02'1212.3
2014-Jul-23 02:33N 34°30' E 033°12'1313.2
2014-Jul-23 01:33N 34°21' E 033°24'1212.5
2014-Jul-23 00:33N 34°11' E 033°32'1413.5
2014-Jul-22 23:33N 33°60' E 033°43'1413.8
2014-Jul-22 22:33N 33°49' E 033°53'1413.7
2014-Jul-22 21:33N 33°38' E 034°03'1413.9
2014-Jul-22 20:33N 33°28' E 034°14'1713.8
2014-Jul-22 19:20N 33°15' E 034°27'1113.7
2014-Jul-22 18:33N 33°07' E 034°35'1413.7
2014-Jul-22 17:33N 32°56' E 034°45'1413.7
2014-Jul-22 16:33N 32°51' E 035°00'  
Track history (hours):
 
Tides and Currents Weather Stations Pressure Air Temp Water Temp Dewpoint Dewpoint Depression Visibility Wind Speed Wind Dir Waves Ship Positions

Salamis Filoxenia

Last reported at 2014-Aug-01 13:30 UTC. Time now 2014-Aug-01 14:00 UTC.
Position N 34°39' E 033°01'.

Length 157 m; draft 6.2 m.

Type: Passenger vessel. MMSI: 209167000.

Date/timePositionNaut miles runAvg speedWind from/ knotsBaromVisibWave heightAir tempDewpointWater temp
2014-Aug-01 13:30N 34°39' E 033°01'0 0.0
2014-Aug-01 12:33N 34°39' E 033°01'0 0.0
2014-Aug-01 11:33N 34°39' E 033°01'0 0.0
2014-Aug-01 10:33N 34°39' E 033°01'0 0.0
2014-Aug-01 09:33N 34°39' E 033°01'1 0.5
2014-Aug-01 08:33N 34°39' E 033°02'8 8.5
2014-Aug-01 07:33N 34°32' E 032°56'1616.0
2014-Aug-01 06:33N 34°35' E 032°36'25315.5
2014-Jul-31 14:15N 35°12' E 027°31'6215.3
2014-Jul-31 10:10N 35°21' E 026°16'29 3.8
2014-Jul-31 02:29N 35°45' E 025°54'1516.0
2014-Jul-31 01:33N 35°58' E 025°48'1615.7
2014-Jul-31 00:33N 36°13' E 025°41'1515.4
2014-Jul-30 23:33N 36°26' E 025°31'1615.6
2014-Jul-30 22:33N 36°38' E 025°18'1615.6
2014-Jul-30 21:33N 36°49' E 025°04'1313.3
2014-Jul-30 20:34N 36°60' E 024°55'1212.2
2014-Jul-30 19:33N 37°05' E 025°08'0 0.0
2014-Jul-30 18:32N 37°05' E 025°08'0 0.0
2014-Jul-30 17:33N 37°05' E 025°08'0 0.0
2014-Jul-30 16:31N 37°05' E 025°08'0 0.0
2014-Jul-30 15:33N 37°05' E 025°08'0 0.0
2014-Jul-30 14:33N 37°05' E 025°08'0 0.0
2014-Jul-30 13:33N 37°05' E 025°08'0 0.0
2014-Jul-30 12:33N 37°05' E 025°08'1110.9
2014-Jul-30 11:33N 37°16' E 025°07'1212.5
2014-Jul-30 10:33N 37°26' E 024°57'0 0.3
2014-Jul-30 09:32N 37°26' E 024°57'0 0.0
2014-Jul-30 08:33N 37°26' E 024°57'0 0.0
2014-Jul-30 07:33N 37°26' E 024°57'0 0.0
2014-Jul-30 06:32N 37°26' E 024°57'0 0.0
2014-Jul-30 05:32N 37°26' E 024°57'0 0.0
2014-Jul-30 04:33N 37°26' E 024°57'0 0.2
2014-Jul-30 03:32N 37°26' E 024°57'7 7.6
2014-Jul-30 02:33N 37°27' E 025°06'8 8.3
2014-Jul-30 01:33N 37°28' E 025°16'2 2.3
2014-Jul-30 00:33N 37°28' E 025°19'0 0.0
2014-Jul-29 23:33N 37°28' E 025°19'0 0.0
2014-Jul-29 22:33N 37°28' E 025°19'0 0.0
2014-Jul-29 21:32N 37°28' E 025°19'0 0.0
2014-Jul-29 20:33N 37°28' E 025°19'0 0.0
2014-Jul-29 19:33N 37°28' E 025°19'0 0.0
2014-Jul-29 18:32N 37°28' E 025°19'0 0.0
2014-Jul-29 17:33N 37°28' E 025°19'0 0.0
2014-Jul-29 16:33N 37°28' E 025°19'1 1.0
2014-Jul-29 15:33N 37°27' E 025°18'10 9.8
2014-Jul-29 14:33N 37°19' E 025°25'1514.6
2014-Jul-29 13:33N 37°13' E 025°42'1414.6
2014-Jul-29 12:33N 37°06' E 025°58'1514.8
2014-Jul-29 11:34N 36°58' E 026°13'1914.8
2014-Jul-29 10:17N 36°48' E 026°33'1114.8
2014-Jul-29 09:32N 36°42' E 026°45'1615.1
2014-Jul-29 08:27N 36°33' E 027°02'1415.8
2014-Jul-29 07:32N 36°32' E 027°20'1715.6
2014-Jul-29 06:27N 36°30' E 027°41'25115.7
2014-Jul-28 14:27N 34°43' E 032°19'1415.7
2014-Jul-28 13:34N 34°38' E 032°35'1515.2
2014-Jul-28 12:34N 34°33' E 032°53'10 9.8
2014-Jul-28 11:34N 34°38' E 033°03'2 2.0
2014-Jul-28 10:34N 34°39' E 033°01'0 0.0
2014-Jul-28 09:33N 34°39' E 033°01'0 0.0
2014-Jul-28 08:34N 34°39' E 033°01'0 0.0
2014-Jul-28 07:34N 34°39' E 033°01'0 0.0
2014-Jul-28 06:34N 34°39' E 033°01'1 1.4
2014-Jul-28 05:33N 34°39' E 033°03'9 9.3
2014-Jul-28 04:34N 34°32' E 032°55'1515.2
2014-Jul-28 03:34N 34°37' E 032°37'32211.1
2014-Jul-26 22:30N 36°47' E 026°34'2915.0
2014-Jul-26 20:33N 37°03' E 026°03'1515.3
2014-Jul-26 19:34N 37°10' E 025°47'1514.7
2014-Jul-26 18:33N 37°13' E 025°29'1414.0
2014-Jul-26 17:33N 37°10' E 025°12'5 4.5
2014-Jul-26 16:22N 37°05' E 025°08'0 0.0
2014-Jul-26 15:22N 37°05' E 025°08'0 0.0
2014-Jul-26 14:31N 37°05' E 025°08'0 0.0
2014-Jul-26 13:10N 37°05' E 025°08'0 0.0
2014-Jul-26 12:31N 37°05' E 025°09'0 0.0
2014-Jul-26 11:22N 37°05' E 025°09'0 0.0
2014-Jul-26 10:31N 37°05' E 025°08'0 0.0
2014-Jul-26 08:32N 37°06' E 025°08'1010.4
2014-Jul-26 07:33N 37°08' E 024°56'1414.0
2014-Jul-26 06:33N 37°12' E 024°39'1513.2
2014-Jul-26 05:26N 37°16' E 024°21'1213.6
2014-Jul-26 04:33N 37°23' E 024°09'2713.6
2014-Jul-26 02:33N 37°40' E 023°42'1413.8
2014-Jul-26 01:33N 37°53' E 023°37'4 3.5
2014-Jul-26 00:34N 37°56' E 023°38'0 0.0
2014-Jul-25 23:32N 37°56' E 023°38'0 0.0
2014-Jul-25 22:32N 37°56' E 023°38'0 0.0
2014-Jul-25 21:32N 37°56' E 023°38'0 0.0
2014-Jul-25 20:32N 37°56' E 023°38'0 0.0
2014-Jul-25 19:32N 37°56' E 023°38'0 0.0
2014-Jul-25 18:32N 37°56' E 023°38'0 0.0
2014-Jul-25 17:32N 37°56' E 023°38'0 0.0
2014-Jul-25 16:32N 37°56' E 023°38'0 0.0
2014-Jul-25 15:32N 37°56' E 023°38'0 0.0
2014-Jul-25 14:32N 37°56' E 023°38'0 0.0
2014-Jul-25 13:32N 37°56' E 023°38'0 0.0
2014-Jul-25 12:29N 37°56' E 023°38'0 0.0
2014-Jul-25 11:32N 37°56' E 023°38'0 0.0
2014-Jul-25 10:32N 37°56' E 023°38'0 0.0
2014-Jul-25 09:32N 37°56' E 023°38'0 0.0
2014-Jul-25 08:32N 37°56' E 023°38'0 0.0
2014-Jul-25 07:32N 37°56' E 023°38'1 1.3
2014-Jul-25 06:33N 37°56' E 023°37'1312.6
2014-Jul-25 05:33N 37°44' E 023°43'5713.9
2014-Jul-25 01:25N 37°21' E 024°50'1314.3
2014-Jul-25 00:33N 37°19' E 025°05'1414.2
2014-Jul-24 23:34N 37°15' E 025°22'1615.6
2014-Jul-24 22:33N 37°12' E 025°42'1514.8
2014-Jul-24 21:34N 37°06' E 025°58'1514.6
2014-Jul-24 20:33N 36°57' E 026°14'1514.6
2014-Jul-24 19:32N 36°50' E 026°29'1414.3
2014-Jul-24 18:33N 36°42' E 026°44'30211.4
2014-Jul-23 16:09N 34°41' E 032°25'915.3
2014-Jul-23 15:33N 34°38' E 032°35'1414.5
2014-Jul-23 14:34N 34°33' E 032°52'1110.5
2014-Jul-23 13:33N 34°38' E 033°03'2 2.3
2014-Jul-23 12:34N 34°39' E 033°01'0 0.0
2014-Jul-23 11:30N 34°39' E 033°01'0 0.0
2014-Jul-23 10:27N 34°39' E 033°01'0 0.0
2014-Jul-23 09:18N 34°39' E 033°01'0 0.0
2014-Jul-23 08:30N 34°39' E 033°01'0 0.0
2014-Jul-23 07:33N 34°39' E 033°01'0 0.0
2014-Jul-23 05:33N 34°39' E 033°01'0 0.0
2014-Jul-23 04:24N 34°39' E 033°01'1 1.2
2014-Jul-23 03:33N 34°39' E 033°02'1212.3
2014-Jul-23 02:33N 34°30' E 033°12'1313.2
2014-Jul-23 01:33N 34°21' E 033°24'1212.5
2014-Jul-23 00:33N 34°11' E 033°32'1413.5
2014-Jul-22 23:33N 33°60' E 033°43'1413.8
2014-Jul-22 22:33N 33°49' E 033°53'1413.7
2014-Jul-22 21:33N 33°38' E 034°03'1413.9
2014-Jul-22 20:33N 33°28' E 034°14'1713.8
2014-Jul-22 19:20N 33°15' E 034°27'1113.7
2014-Jul-22 18:33N 33°07' E 034°35'1413.7
2014-Jul-22 17:33N 32°56' E 034°45'1413.7
2014-Jul-22 16:33N 32°51' E 035°00'  

Dump ship's entire track history